Time;durP1;ratioP1;P1;durP2;ratioP2;P2;SDS_P1;SDS_P2;PMS_P1;PMS_P2;Temp;Humidity;BMP_temperature;BMP_pressure;BME280_temperature;BME280_humidity;BME280_pressure;Samples;Min_cycle;Max_cycle;Signal;HPM_P1;HPM_P2
2024/02/01 01:17:13;;;;;;;14.43;9.43;;;4.70;99.90;;;;;;5619695;24;20538;-86
2024/02/01 01:36:49;;;;;;;13.27;9.80;;;4.50;99.90;;;;;;6121638;23;21344;31
2024/02/01 01:57:43;;;;;;;18.43;11.13;;;5.00;99.90;;;;;;5735264;24;20187;-88
2024/02/01 03:59:19;;;;;;;18.27;11.87;;;5.20;99.90;;;;;;5941366;23;20581;-87
2024/02/01 04:19:19;;;;;;;17.97;11.90;;;5.30;99.20;;;;;;5672625;24;20483;-87
2024/02/01 04:39:50;;;;;;;18.80;13.63;;;5.20;99.80;;;;;;5655248;24;20202;-87
2024/02/01 05:04:51;;;;;;;26.23;16.77;;;4.90;99.90;;;;;;5654452;24;20579;-85
2024/02/01 05:35:33;;;;;;;29.70;19.40;;;4.60;99.90;;;;;;5809447;24;20176;-86
2024/02/01 06:00:47;;;;;;;36.87;23.53;;;4.30;99.90;;;;;;5958019;23;20577;-85
2024/02/01 09:20:18;;;;;;;22.00;16.23;;;4.20;99.90;;;;;;5862741;23;20181;-80
2024/02/01 09:40:47;;;;;;;22.40;15.50;;;4.20;99.90;;;;;;5801095;24;20691;-83
2024/02/01 10:05:44;;;;;;;23.30;15.77;;;4.30;99.90;;;;;;5821401;24;20481;-83
2024/02/01 10:31:23;;;;;;;19.70;14.10;;;4.30;99.90;;;;;;5626166;24;20289;-80
2024/02/01 11:01:58;;;;;;;17.83;13.63;;;4.50;99.90;;;;;;5765484;24;20363;-80
2024/02/01 11:26:41;;;;;;;18.83;14.50;;;4.50;99.90;;;;;;5633945;24;21142;-81
2024/02/01 11:47:28;;;;;;;19.50;15.10;;;4.60;99.90;;;;;;5668034;24;20560;-84
2024/02/01 12:17:58;;;;;;;15.47;12.50;;;5.40;99.90;;;;;;5586753;24;20186;-85
2024/02/01 12:42:45;;;;;;;12.10;9.60;;;6.00;99.90;;;;;;5665240;24;20208;-83
2024/02/01 13:03:23;;;;;;;11.87;8.60;;;5.90;99.90;;;;;;5694485;24;20212;-84
2024/02/01 13:38:31;;;;;;;12.53;7.97;;;5.90;99.90;;;;;;5721574;24;20734;-84
2024/02/01 14:04:22;;;;;;;9.97;7.30;;;6.00;99.90;;;;;;5768165;24;20350;-80
2024/02/01 14:34:47;;;;;;;8.70;6.07;;;6.00;95.20;;;;;;5695416;24;20366;-79
2024/02/01 15:09:48;;;;;;;7.67;4.20;;;5.30;97.80;;;;;;5888954;23;20483;-84
2024/02/01 15:30:35;;;;;;;7.43;4.57;;;4.80;99.90;;;;;;5709113;24;20600;-83
2024/02/01 16:26:18;;;;;;;10.77;5.57;;;5.50;96.60;;;;;;5810213;24;20190;-86
2024/02/01 16:51:45;;;;;;;10.20;4.63;;;5.30;98.00;;;;;;5641102;24;20213;-84
2024/02/01 17:41:57;;;;;;;9.43;4.33;;;4.70;99.90;;;;;;5561779;25;20277;-86
2024/02/01 18:07:53;;;;;;;8.87;3.80;;;5.30;95.90;;;;;;5823334;24;20231;-87
2024/02/01 18:27:54;;;;;;;11.03;4.67;;;5.00;96.20;;;;;;5704243;24;20570;-87
2024/02/01 18:53:38;;;;;;;8.97;4.13;;;4.80;97.40;;;;;;5813685;24;20221;-84
2024/02/01 19:59:21;;;;;;;9.17;4.00;;;4.90;98.20;;;;;;6106861;23;20162;-89
2024/02/01 20:34:57;;;;;;;7.77;3.03;;;4.90;99.90;;;;;;6040665;23;20193;-86
2024/02/01 21:09:58;;;;;;;9.40;2.87;;;4.40;99.90;;;;;;5845011;24;20511;-86
2024/02/01 21:35:51;;;;;;;10.97;3.60;;;3.90;99.90;;;;;;5832132;24;20249;-87
2024/02/01 22:11:24;;;;;;;11.73;3.17;;;4.00;99.90;;;;;;5992877;23;20654;-87
2024/02/01 22:15:45;;;;;;;13.33;3.83;;;4.00;99.90;;;;;;6053970;23;21091;-88
2024/02/01 22:36:44;;;;;;;12.00;3.63;;;3.80;99.90;;;;;;6006680;23;20430;-87
2024/02/01 23:01:33;;;;;;;13.77;4.10;;;3.90;99.90;;;;;;6062577;23;20189;-86
2024/02/01 23:27:08;;;;;;;9.80;3.83;;;3.90;99.90;;;;;;5966515;23;20227;-84
2024/02/01 23:57:47;;;;;;;7.30;3.60;;;4.10;99.90;;;;;;5926890;23;20193;-88
